createdAt,value
2023-04-23T00:00:48.418Z,99731.39
2023-04-23T00:03:36.458Z,99724.98
2023-04-23T00:06:08.102Z,99726.41
2023-04-23T00:08:42.027Z,99724.27
2023-04-23T00:11:10.610Z,99725.62
2023-04-23T00:13:39.480Z,99721.02
2023-04-23T00:16:10.893Z,99723.92
2023-04-23T00:18:39.546Z,99720.84
2023-04-23T00:21:09.273Z,99714.85
2023-04-23T00:23:39.624Z,99712.89
2023-04-23T00:26:08.121Z,99713.02
2023-04-23T00:28:36.687Z,99709.64
2023-04-23T00:31:05.062Z,99710.16
2023-04-23T00:33:33.355Z,99706.73
2023-04-23T00:36:01.739Z,99704.42
2023-04-23T00:38:30.269Z,99700.17
2023-04-23T00:40:58.831Z,99694.42
2023-04-23T00:43:27.314Z,99697.02
2023-04-23T00:45:55.797Z,99694.27
2023-04-23T00:48:24.240Z,99693.63
2023-04-23T00:51:11.542Z,99692.31
2023-04-23T01:13:34.701Z,99689.05
2023-04-23T01:16:03.238Z,99688.86
2023-04-23T01:18:31.573Z,99686.70
2023-04-23T01:21:00.721Z,99684.49
2023-04-23T01:23:29.356Z,99685.10
2023-04-23T01:25:58.978Z,99683.32
2023-04-23T01:28:27.872Z,99683.17
2023-04-23T01:30:57.078Z,99684.06
2023-04-23T01:33:26.370Z,99681.95
2023-04-23T01:35:56.579Z,99677.94
2023-04-23T01:38:27.416Z,99675.99
2023-04-23T01:40:56.024Z,99679.40
2023-04-23T01:43:25.829Z,99681.48
2023-04-23T01:45:54.382Z,99673.80
2023-04-23T01:48:22.856Z,99670.42
2023-04-23T01:50:51.947Z,99675.65
2023-04-23T01:53:20.309Z,99673.95
2023-04-23T01:55:51.806Z,99670.04
2023-04-23T01:58:20.339Z,99670.77
2023-04-23T02:00:48.842Z,99665.49
2023-04-23T02:03:17.818Z,99664.15
2023-04-23T02:05:46.631Z,99664.66
2023-04-23T02:08:14.962Z,99660.53
2023-04-23T02:10:43.378Z,99661.23
2023-04-23T02:13:11.692Z,99661.70
2023-04-23T02:15:40.656Z,99660.60
2023-04-23T02:18:09.073Z,99659.60
2023-04-23T02:20:40.817Z,99658.43
2023-04-23T02:23:09.415Z,99659.26
2023-04-23T02:25:39.304Z,99658.29
2023-04-23T02:28:08.403Z,99654.61
2023-04-23T02:30:37.345Z,99649.58
2023-04-23T02:33:06.189Z,99649.98
2023-04-23T02:35:34.591Z,99650.17
2023-04-23T02:38:03.164Z,99654.19
2023-04-23T02:40:31.687Z,99646.20
2023-04-23T02:43:00.137Z,99649.15
2023-04-23T02:45:30.653Z,99651.43
2023-04-23T02:47:59.071Z,99654.10
2023-04-23T02:50:27.442Z,99652.84
2023-04-23T02:52:56.165Z,99655.71
2023-04-23T02:55:25.337Z,99652.52
2023-04-23T02:57:58.154Z,99655.75
2023-04-23T03:00:27.978Z,99656.73
2023-04-23T03:02:56.498Z,99657.19
2023-04-23T03:05:25.100Z,99658.42
2023-04-23T03:07:53.976Z,99656.41
2023-04-23T03:10:22.330Z,99657.60
2023-04-23T03:12:50.711Z,99653.30
2023-04-23T03:15:19.198Z,99655.38
2023-04-23T03:17:47.792Z,99653.92
2023-04-23T03:20:16.393Z,99654.23
2023-04-23T03:22:44.826Z,99653.29
2023-04-23T03:25:13.188Z,99650.59
2023-04-23T03:27:42.497Z,99652.42
2023-04-23T03:30:11.649Z,99647.78
2023-04-23T03:32:40.301Z,99650.28
2023-04-23T03:35:10.388Z,99648.23
2023-04-23T03:37:38.793Z,99649.11
2023-04-23T03:40:09.286Z,99645.17
2023-04-23T03:42:37.655Z,99646.95
2023-04-23T03:45:07.366Z,99647.07
2023-04-23T03:47:36.903Z,99647.39
2023-04-23T03:50:08.368Z,99648.85
2023-04-23T03:52:36.852Z,99645.00
2023-04-23T03:55:05.870Z,99646.11
2023-04-23T03:57:34.324Z,99646.34
2023-04-23T04:00:04.961Z,99642.02
2023-04-23T04:02:33.406Z,99644.27
2023-04-23T04:05:02.168Z,99642.02
2023-04-23T04:07:30.695Z,99644.71
2023-04-23T04:09:59.627Z,99645.70
2023-04-23T04:12:28.023Z,99645.62
2023-04-23T04:14:56.514Z,99646.38
2023-04-23T04:17:24.985Z,99645.17
2023-04-23T04:19:53.297Z,99645.23
2023-04-23T04:22:21.651Z,99646.52
2023-04-23T04:24:52.110Z,99644.88
2023-04-23T04:27:21.416Z,99640.05
2023-04-23T04:29:49.968Z,99638.52
2023-04-23T04:32:19.219Z,99632.84
2023-04-23T04:34:47.623Z,99636.10
2023-04-23T04:37:15.959Z,99633.04
2023-04-23T04:39:44.353Z,99634.83
2023-04-23T04:42:13.340Z,99631.05
2023-04-23T04:44:43.580Z,99630.99
2023-04-23T04:47:13.548Z,99629.05
2023-04-23T04:49:42.046Z,99632.29
2023-04-23T04:52:11.356Z,99630.48
2023-04-23T04:54:40.816Z,99630.90
2023-04-23T04:57:10.994Z,99631.92
2023-04-23T04:59:39.658Z,99628.42
2023-04-23T05:02:08.336Z,99626.98
2023-04-23T05:04:36.681Z,99628.82
2023-04-23T05:07:05.198Z,99627.75
2023-04-23T05:09:33.760Z,99626.80
2023-04-23T05:12:02.162Z,99625.39
2023-04-23T05:14:30.663Z,99625.65
2023-04-23T05:16:59.280Z,99624.95
2023-04-23T05:19:27.827Z,99628.01
2023-04-23T05:21:56.690Z,99624.33
2023-04-23T05:24:25.087Z,99618.90
2023-04-23T05:26:53.387Z,99622.98
2023-04-23T05:29:21.942Z,99616.63
2023-04-23T05:31:50.479Z,99617.89
2023-04-23T05:34:18.886Z,99619.02
2023-04-23T05:36:47.185Z,99619.07
2023-04-23T05:39:15.780Z,99615.33
2023-04-23T05:41:44.200Z,99616.20
2023-04-23T05:44:12.573Z,99613.05
2023-04-23T05:46:40.883Z,99614.63
2023-04-23T05:49:09.224Z,99614.13
2023-04-23T05:51:37.564Z,99617.41
2023-04-23T05:54:06.126Z,99615.66
2023-04-23T05:56:34.635Z,99612.23
2023-04-23T05:59:02.997Z,99612.84
2023-04-23T06:01:32.042Z,99615.95
2023-04-23T06:04:00.903Z,99613.38
2023-04-23T06:06:29.513Z,99608.42
2023-04-23T06:08:57.910Z,99609.93
2023-04-23T06:11:26.828Z,99608.91
2023-04-23T06:13:56.657Z,99611.95
2023-04-23T06:16:25.762Z,99608.44
2023-04-23T06:18:56.251Z,99607.54
2023-04-23T06:21:24.863Z,99599.31
2023-04-23T06:23:53.501Z,99599.90
2023-04-23T06:26:21.863Z,99599.42
2023-04-23T06:28:50.245Z,99597.33
2023-04-23T06:31:19.422Z,99597.06
2023-04-23T06:33:48.020Z,99598.41
2023-04-23T06:36:16.404Z,99593.93
2023-04-23T06:38:45.028Z,99594.91
2023-04-23T06:41:13.692Z,99597.29
2023-04-23T06:43:42.675Z,99592.84
2023-04-23T06:46:11.096Z,99594.52
2023-04-23T06:48:39.693Z,99593.98
2023-04-23T06:51:08.081Z,99593.40
2023-04-23T06:53:38.009Z,99586.85
2023-04-23T06:56:07.861Z,99584.70
2023-04-23T06:58:36.541Z,99585.23
2023-04-23T07:01:24.931Z,99580.27
2023-04-23T07:03:54.667Z,99577.77
2023-04-23T07:06:23.199Z,99579.20
2023-04-23T07:08:51.573Z,99575.43
2023-04-23T07:11:20.029Z,99572.58
2023-04-23T07:13:51.076Z,99569.92
2023-04-23T07:16:21.902Z,99565.52
2023-04-23T07:18:51.012Z,99565.94
2023-04-23T07:21:19.525Z,99558.91
2023-04-23T07:23:47.852Z,99551.73
2023-04-23T07:26:16.282Z,99557.23
2023-04-23T07:28:46.489Z,99558.10
2023-04-23T07:31:15.164Z,99554.08
2023-04-23T07:33:43.581Z,99552.20
2023-04-23T07:36:12.150Z,99553.41
2023-04-23T07:38:40.993Z,99555.02
2023-04-23T07:41:09.540Z,99549.41
2023-04-23T07:43:40.220Z,99548.77
2023-04-23T07:46:08.841Z,99548.65
2023-04-23T07:48:37.405Z,99547.37
2023-04-23T07:58:10.205Z,99542.37
2023-04-23T08:00:38.652Z,99539.51
2023-04-23T08:03:07.150Z,99540.34
2023-04-23T08:05:37.755Z,99538.95
2023-04-23T08:08:07.123Z,99543.79
2023-04-23T08:10:35.973Z,99539.82
2023-04-23T08:13:04.483Z,99536.33
2023-04-23T08:15:32.950Z,99531.67
2023-04-23T08:18:01.489Z,99534.52
2023-04-23T08:20:30.032Z,99534.80
2023-04-23T08:22:58.572Z,99529.84
2023-04-23T08:25:27.146Z,99528.43
2023-04-23T08:27:55.752Z,99527.36
2023-04-23T08:30:24.348Z,99523.95
2023-04-23T08:32:54.041Z,99525.32
2023-04-23T08:35:24.421Z,99523.52
2023-04-23T08:37:52.803Z,99519.42
2023-04-23T08:40:21.543Z,99520.08
2023-04-23T08:42:55.304Z,99515.48
2023-04-23T08:45:26.419Z,99510.85
2023-04-23T08:48:02.545Z,99510.14
2023-04-23T08:50:33.669Z,99508.79
2023-04-23T08:53:04.388Z,99505.73
2023-04-23T08:55:35.716Z,99505.14
2023-04-23T08:58:07.674Z,99501.53
2023-04-23T09:00:36.402Z,99497.60
2023-04-23T09:03:06.127Z,99490.63
2023-04-23T09:05:35.180Z,99487.19
2023-04-23T09:08:03.630Z,99484.55
2023-04-23T09:10:32.907Z,99482.02
2023-04-23T09:13:01.604Z,99479.50
2023-04-23T09:15:30.038Z,99476.69
2023-04-23T09:17:59.836Z,99475.55
2023-04-23T09:20:28.333Z,99476.80
2023-04-23T09:22:56.885Z,99479.73
2023-04-23T09:25:26.863Z,99480.46
2023-04-23T09:27:59.914Z,99479.32
2023-04-23T09:30:28.578Z,99477.39
2023-04-23T09:32:57.244Z,99479.89
2023-04-23T09:35:27.808Z,99480.52
2023-04-23T09:37:56.265Z,99476.52
2023-04-23T09:40:27.341Z,99478.68
2023-04-23T09:42:55.993Z,99478.66
2023-04-23T09:45:27.401Z,99471.79
2023-04-23T09:47:58.378Z,99468.42
2023-04-23T09:50:36.719Z,99466.27
2023-04-23T09:53:09.967Z,99463.95
2023-04-23T09:55:44.149Z,99458.60
2023-04-23T09:58:15.760Z,99453.68
2023-04-23T10:00:44.318Z,99451.64
2023-04-23T10:03:13.416Z,99450.73
2023-04-23T10:08:16.147Z,99451.70
2023-04-23T10:10:59.937Z,99448.05
2023-04-23T10:13:36.397Z,99444.89
2023-04-23T10:16:20.644Z,99444.84
2023-04-23T10:18:54.065Z,99447.90
2023-04-23T10:21:39.447Z,99451.95
2023-04-23T10:24:11.796Z,99453.44
2023-04-23T10:26:42.795Z,99453.94
2023-04-23T10:29:17.357Z,99455.64
2023-04-23T10:31:46.374Z,99460.40
2023-04-23T10:34:15.658Z,99461.23
2023-04-23T10:36:44.163Z,99464.55
2023-04-23T10:41:44.642Z,99469.02
2023-04-23T10:44:16.900Z,99471.73
2023-04-23T10:46:57.921Z,99473.92
2023-04-23T10:49:31.261Z,99473.16
2023-04-23T10:52:21.682Z,99474.59
2023-04-23T10:55:00.140Z,99472.52
2023-04-23T10:57:28.850Z,99471.98
2023-04-23T10:59:59.031Z,99471.90
2023-04-23T11:02:44.178Z,99466.50
2023-04-23T11:05:12.792Z,99468.58
2023-04-23T11:07:41.099Z,99469.93
2023-04-23T11:10:16.171Z,99472.85
2023-04-23T11:12:44.971Z,99473.08
2023-04-23T11:15:16.381Z,99471.89
2023-04-23T11:17:44.701Z,99470.69
2023-04-23T11:20:18.837Z,99470.99
2023-04-23T11:22:55.797Z,99472.38
2023-04-23T11:25:27.869Z,99466.79
2023-04-23T11:28:00.538Z,99466.74
2023-04-23T11:30:30.792Z,99466.95
2023-04-23T11:33:01.322Z,99465.50
2023-04-23T11:35:33.523Z,99463.66
2023-04-23T11:38:08.712Z,99462.54
2023-04-23T11:40:37.311Z,99463.65
2023-04-23T11:43:05.672Z,99464.34
2023-04-23T11:45:34.295Z,99461.68
2023-04-23T11:48:03.337Z,99458.44
2023-04-23T11:53:11.896Z,99458.24
2023-04-23T11:55:44.133Z,99460.73
2023-04-23T11:58:12.658Z,99457.30
2023-04-23T12:00:41.134Z,99458.13
2023-04-23T12:03:09.490Z,99456.02
2023-04-23T12:05:44.413Z,99452.55
2023-04-23T12:08:17.205Z,99456.55
2023-04-23T12:10:54.474Z,99457.52
2023-04-23T12:13:27.422Z,99454.89
2023-04-23T12:15:59.578Z,99461.67
2023-04-23T12:18:38.045Z,99462.06
2023-04-23T12:21:13.712Z,99464.33
2023-04-23T12:23:45.060Z,99463.15
2023-04-23T12:26:16.334Z,99464.98
2023-04-23T12:28:52.895Z,99471.62
2023-04-23T12:31:30.332Z,99468.02
2023-04-23T12:34:04.954Z,99474.66
2023-04-23T12:36:38.673Z,99474.33
2023-04-23T12:39:31.773Z,99475.67
2023-04-23T12:42:04.828Z,99477.70
2023-04-23T12:44:35.883Z,99477.39
2023-04-23T12:47:07.972Z,99485.59
2023-04-23T12:49:39.124Z,99481.39
2023-04-23T12:52:08.729Z,99481.07
2023-04-23T12:54:41.262Z,99488.96
2023-04-23T12:57:14.315Z,99488.61
2023-04-23T12:59:43.050Z,99487.61
2023-04-23T13:02:12.260Z,99488.20
2023-04-23T13:04:40.706Z,99490.02
2023-04-23T13:07:10.163Z,99492.09
2023-04-23T13:09:39.038Z,99486.54
2023-04-23T13:12:07.384Z,99487.70
2023-04-23T13:14:36.707Z,99490.05
2023-04-23T13:17:05.005Z,99492.48
2023-04-23T13:19:35.688Z,99488.92
2023-04-23T13:22:04.921Z,99489.75
2023-04-23T13:24:33.639Z,99488.83
2023-04-23T13:27:02.264Z,99488.11
2023-04-23T13:29:30.753Z,99485.79
2023-04-23T13:31:59.347Z,99493.29
2023-04-23T13:34:27.813Z,99489.04
2023-04-23T13:36:57.136Z,99487.76
2023-04-23T13:39:25.675Z,99492.22
2023-04-23T13:44:27.864Z,99486.24
2023-04-23T13:46:58.727Z,99487.55
2023-04-23T13:49:27.706Z,99489.42
2023-04-23T13:52:00.455Z,99495.27
2023-04-23T13:54:29.580Z,99489.83
2023-04-23T13:56:58.633Z,99488.28
2023-04-23T13:59:27.148Z,99488.54
2023-04-23T14:01:55.624Z,99486.80
2023-04-23T14:04:24.350Z,99481.20
2023-04-23T14:06:52.837Z,99479.85
2023-04-23T14:09:22.592Z,99481.37
2023-04-23T14:11:51.955Z,99480.51
2023-04-23T14:14:20.339Z,99478.98
2023-04-23T14:16:49.875Z,99475.55
2023-04-23T14:19:18.251Z,99480.26
2023-04-23T14:21:46.694Z,99479.11
2023-04-23T14:24:38.911Z,99479.33
2023-04-23T14:27:07.284Z,99478.42
2023-04-23T14:29:51.488Z,99480.20
2023-04-23T14:32:20.015Z,99481.96
2023-04-23T14:34:48.628Z,99479.10
2023-04-23T14:37:20.311Z,99480.02
2023-04-23T14:39:48.845Z,99476.48
2023-04-23T14:42:17.359Z,99471.92
2023-04-23T14:44:45.678Z,99478.00
2023-04-23T14:47:14.949Z,99474.06
2023-04-23T14:49:43.461Z,99472.39
2023-04-23T14:52:12.539Z,99477.66
2023-04-23T14:54:40.875Z,99476.28
2023-04-23T14:57:09.356Z,99475.88
2023-04-23T14:59:37.693Z,99475.30
2023-04-23T15:02:06.433Z,99476.19
2023-04-23T15:04:35.656Z,99472.73
2023-04-23T15:07:04.308Z,99472.86
2023-04-23T15:09:32.749Z,99473.45
2023-04-23T15:12:01.522Z,99477.20
2023-04-23T15:14:37.424Z,99477.13
2023-04-23T15:17:06.013Z,99479.13
2023-04-23T15:19:34.518Z,99482.42
2023-04-23T15:22:02.886Z,99483.16
2023-04-23T15:24:31.207Z,99484.08
2023-04-23T15:27:01.445Z,99483.40
2023-04-23T15:29:31.074Z,99487.40
2023-04-23T15:31:59.858Z,99488.36
2023-04-23T15:34:28.455Z,99484.85
2023-04-23T15:36:56.837Z,99486.13
2023-04-23T15:39:26.332Z,99485.42
2023-04-23T15:49:17.786Z,99482.92
2023-04-23T15:51:46.632Z,99480.75
2023-04-23T15:54:15.116Z,99475.30
2023-04-23T15:56:43.485Z,99474.68
2023-04-23T15:59:11.927Z,99471.01
2023-04-23T16:01:40.360Z,99475.52
2023-04-23T16:04:11.563Z,99472.68
2023-04-23T16:06:40.725Z,99477.17
2023-04-23T16:09:09.309Z,99476.10
2023-04-23T16:11:38.788Z,99475.80
2023-04-23T16:14:09.526Z,99472.30
2023-04-23T16:16:39.332Z,99470.10
2023-04-23T16:19:07.855Z,99471.66
2023-04-23T16:21:36.296Z,99464.97
2023-04-23T16:24:06.632Z,99460.84
2023-04-23T16:26:35.361Z,99456.77
2023-04-23T16:29:20.938Z,99459.09
2023-04-23T16:31:50.561Z,99457.46
2023-04-23T16:34:19.062Z,99457.19
2023-04-23T16:36:47.346Z,99453.24
2023-04-23T16:39:15.829Z,99449.71
2023-04-23T16:41:44.858Z,99449.59
2023-04-23T16:44:13.285Z,99449.59
2023-04-23T16:46:41.840Z,99446.12
2023-04-23T16:49:10.300Z,99444.27
2023-04-23T16:51:38.612Z,99438.88
2023-04-23T16:54:07.117Z,99445.54
2023-04-23T17:04:28.284Z,99446.02
2023-04-23T17:06:56.859Z,99444.54
2023-04-23T17:09:27.064Z,99445.84
2023-04-23T17:11:56.746Z,99444.98
2023-04-23T17:14:25.700Z,99447.09
2023-04-23T17:16:56.366Z,99447.66
2023-04-23T17:19:24.802Z,99448.40
2023-04-23T17:21:53.114Z,99448.52
2023-04-23T17:24:21.562Z,99447.84
2023-04-23T17:26:50.517Z,99449.35
2023-04-23T17:29:18.960Z,99446.01
2023-04-23T17:31:47.383Z,99444.03
2023-04-23T17:34:16.012Z,99442.02
2023-04-23T17:36:44.332Z,99437.70
2023-04-23T17:39:12.852Z,99433.02
2023-04-23T17:41:41.324Z,99431.00
2023-04-23T17:44:09.940Z,99423.21
2023-04-23T17:46:38.600Z,99424.67
2023-04-23T17:49:08.094Z,99420.73
2023-04-23T17:51:36.884Z,99418.33
2023-04-23T17:54:06.407Z,99414.27
2023-04-23T17:56:34.824Z,99408.77
2023-04-23T17:59:03.887Z,99410.63
2023-04-23T18:01:32.953Z,99407.77
2023-04-23T18:04:01.721Z,99405.30
2023-04-23T18:06:30.555Z,99404.10
2023-04-23T18:08:59.765Z,99403.83
2023-04-23T18:11:28.271Z,99403.20
2023-04-23T18:13:56.841Z,99400.73
2023-04-23T18:16:25.559Z,99401.02
2023-04-23T18:18:54.031Z,99401.33
2023-04-23T18:21:23.396Z,99396.83
2023-04-23T18:23:51.716Z,99406.89
2023-04-23T18:26:20.402Z,99405.72
2023-04-23T18:28:48.740Z,99403.23
2023-04-23T18:31:17.312Z,99398.39
2023-04-23T18:33:54.794Z,99396.49
2023-04-23T18:36:44.840Z,99399.83
2023-04-23T18:39:13.594Z,99401.96
2023-04-23T18:41:42.028Z,99404.54
2023-04-23T18:44:13.173Z,99401.70
2023-04-23T18:46:41.587Z,99400.69
2023-04-23T18:49:41.309Z,99399.05
2023-04-23T18:52:09.978Z,99397.15
2023-04-23T18:54:39.084Z,99396.30
2023-04-23T18:57:07.605Z,99395.98
2023-04-23T18:59:37.390Z,99392.25
2023-04-23T19:02:06.274Z,99395.14
2023-04-23T19:04:35.188Z,99400.30
2023-04-23T19:07:04.614Z,99399.51
2023-04-23T19:09:33.216Z,99402.62
2023-04-23T19:12:01.891Z,99401.46
2023-04-23T19:14:30.288Z,99397.40
2023-04-23T19:16:58.922Z,99396.91
2023-04-23T19:19:31.022Z,99399.95
2023-04-23T19:22:00.928Z,99398.50
2023-04-23T19:24:31.418Z,99396.03
2023-04-23T19:27:00.035Z,99394.91
2023-04-23T19:29:28.493Z,99396.66
2023-04-23T19:31:56.943Z,99397.39
2023-04-23T19:34:26.307Z,99398.34
2023-04-23T19:36:54.650Z,99396.00
2023-04-23T19:39:23.677Z,99386.34
2023-04-23T19:41:52.293Z,99375.59
2023-04-23T19:44:20.695Z,99369.43
2023-04-23T19:46:49.082Z,99366.04
2023-04-23T19:49:17.501Z,99369.77
2023-04-23T19:51:46.536Z,99365.23
2023-04-23T19:54:14.925Z,99365.81
2023-04-23T19:56:43.285Z,99365.16
2023-04-23T19:59:14.340Z,99363.48
2023-04-23T20:01:42.772Z,99359.68
2023-04-23T20:04:11.408Z,99356.56
2023-04-23T20:06:39.861Z,99346.95
2023-04-23T20:09:08.489Z,99341.60
2023-04-23T20:11:37.216Z,99336.07
2023-04-23T20:14:06.060Z,99334.33
2023-04-23T20:16:34.607Z,99334.13
2023-04-23T20:19:04.912Z,99336.31
2023-04-23T20:21:33.228Z,99338.66
2023-04-23T20:24:01.673Z,99338.99
2023-04-23T20:26:30.047Z,99337.52
2023-04-23T20:28:58.898Z,99332.57
2023-04-23T20:31:27.500Z,99331.04
2023-04-23T20:33:56.620Z,99332.42
2023-04-23T20:36:28.813Z,99335.72
2023-04-23T20:38:59.576Z,99330.58
2023-04-23T20:41:36.606Z,99327.19
2023-04-23T20:44:05.292Z,99328.11
2023-04-23T20:46:33.893Z,99331.20
2023-04-23T20:49:03.362Z,99325.77
2023-04-23T20:51:35.223Z,99322.70
2023-04-23T20:54:05.617Z,99322.21
2023-04-23T20:56:33.986Z,99320.47
2023-04-23T20:59:02.548Z,99318.63
2023-04-23T21:01:30.992Z,99313.58
2023-04-23T21:04:01.229Z,99310.09
2023-04-23T21:06:31.436Z,99307.98
2023-04-23T21:08:59.852Z,99303.60
2023-04-23T21:11:29.303Z,99302.01
2023-04-23T21:14:00.916Z,99302.48
2023-04-23T21:16:29.659Z,99302.73
2023-04-23T21:18:58.098Z,99300.43
2023-04-23T21:21:29.705Z,99297.36
2023-04-23T21:24:03.140Z,99294.40
2023-04-23T21:26:31.900Z,99294.23
2023-04-23T21:29:00.316Z,99292.55
2023-04-23T21:31:52.189Z,99292.42
2023-04-23T21:34:21.524Z,99290.11
2023-04-23T21:36:49.932Z,99287.73
2023-04-23T21:39:18.327Z,99282.57
2023-04-23T21:41:47.248Z,99277.11
2023-04-23T21:44:17.093Z,99274.86
2023-04-23T21:46:46.856Z,99271.84
2023-04-23T21:49:17.339Z,99268.64
2023-04-23T21:51:46.294Z,99267.82
2023-04-23T21:54:14.646Z,99265.17
2023-04-23T21:57:03.010Z,99261.95
2023-04-23T21:59:31.406Z,99261.68
2023-04-23T22:01:59.782Z,99265.20
2023-04-23T22:04:29.361Z,99261.31
2023-04-23T22:07:02.328Z,99257.55
2023-04-23T22:09:30.769Z,99255.89
2023-04-23T22:12:02.184Z,99258.06
2023-04-23T22:14:31.401Z,99256.27
2023-04-23T22:17:02.060Z,99257.34
2023-04-23T22:19:31.487Z,99257.13
2023-04-23T22:22:00.187Z,99260.21
2023-04-23T22:24:28.509Z,99256.55
2023-04-23T22:26:58.137Z,99255.41
2023-04-23T22:29:26.613Z,99256.04
2023-04-23T22:31:55.071Z,99256.23
2023-04-23T22:34:24.948Z,99252.86
2023-04-23T22:36:53.357Z,99251.94
2023-04-23T22:39:21.887Z,99250.88
2023-04-23T22:41:50.789Z,99246.48
2023-04-23T22:44:19.103Z,99247.10
2023-04-23T22:46:47.433Z,99246.34
2023-04-23T22:49:18.288Z,99244.25
2023-04-23T22:51:46.743Z,99237.44
2023-04-23T22:54:15.554Z,99238.19
2023-04-23T22:56:43.995Z,99231.14
2023-04-23T22:59:13.526Z,99230.17
2023-04-23T23:01:42.385Z,99230.04
2023-04-23T23:04:12.845Z,99230.35
2023-04-23T23:06:43.717Z,99230.89
2023-04-23T23:09:12.208Z,99228.38
2023-04-23T23:11:40.704Z,99228.46
2023-04-23T23:14:09.072Z,99226.27
2023-04-23T23:16:37.381Z,99227.48
2023-04-23T23:19:06.143Z,99222.96
2023-04-23T23:21:34.654Z,99222.52
2023-04-23T23:24:03.068Z,99218.55
2023-04-23T23:26:31.415Z,99214.16
2023-04-23T23:28:59.731Z,99215.83
2023-04-23T23:31:28.163Z,99206.15
2023-04-23T23:33:56.538Z,99205.14
2023-04-23T23:36:24.886Z,99208.39
2023-04-23T23:38:53.264Z,99202.95
2023-04-23T23:41:21.641Z,99203.27
2023-04-23T23:43:50.065Z,99200.13
2023-04-23T23:46:19.972Z,99196.64
2023-04-23T23:48:48.539Z,99192.23
2023-04-23T23:51:16.859Z,99187.80
2023-04-23T23:53:45.818Z,99186.24
2023-04-23T23:56:14.706Z,99179.67
2023-04-23T23:58:43.113Z,99173.20
